Time;durP1;ratioP1;P1;durP2;ratioP2;P2;SDS_P1;SDS_P2;PMS_P1;PMS_P2;Temp;Humidity;BMP_temperature;BMP_pressure;BME280_temperature;BME280_humidity;BME280_pressure;Samples;Min_cycle;Max_cycle;Signal;HPM_P1;HPM_P2
2021/03/19 00:00:15;;;;;;;2.80;2.05;;;7.20;99.90;;;;;;4996682;28;20044;-54
2021/03/19 00:02:41;;;;;;;3.45;2.00;;;7.20;99.90;;;;;;5011532;28;20045;-54
2021/03/19 00:05:10;;;;;;;3.13;2.10;;;7.20;99.90;;;;;;5010062;28;20026;-53
2021/03/19 00:07:44;;;;;;;3.53;2.20;;;7.20;99.90;;;;;;5010662;28;20388;-56
2021/03/19 00:10:11;;;;;;;5.45;2.55;;;7.20;99.90;;;;;;5010105;28;20034;-55
2021/03/19 00:12:37;;;;;;;4.72;2.40;;;7.20;99.90;;;;;;5010560;28;20025;-55
2021/03/19 00:15:04;;;;;;;2.67;2.30;;;7.20;99.90;;;;;;5010168;28;20037;-59
2021/03/19 00:17:30;;;;;;;3.25;2.42;;;7.20;99.90;;;;;;5010540;28;20494;-56
2021/03/19 00:19:56;;;;;;;4.53;2.50;;;7.20;99.90;;;;;;5009971;28;20034;-53
2021/03/19 00:22:21;;;;;;;4.82;2.65;;;7.20;99.90;;;;;;5012897;28;20076;-56
2021/03/19 00:24:48;;;;;;;4.18;2.78;;;7.20;99.90;;;;;;5013933;28;20125;-57
2021/03/19 00:27:14;;;;;;;3.83;2.65;;;7.20;99.90;;;;;;5013787;28;20053;-55
2021/03/19 00:29:40;;;;;;;5.70;2.50;;;7.20;99.90;;;;;;5013908;28;20033;-54
2021/03/19 00:32:06;;;;;;;4.18;2.30;;;7.20;99.90;;;;;;5012018;28;20034;-55
2021/03/19 00:34:32;;;;;;;2.90;2.50;;;7.20;99.90;;;;;;5013614;28;20073;-55
2021/03/19 00:36:57;;;;;;;4.38;2.88;;;7.20;99.90;;;;;;5013863;28;20084;-54
2021/03/19 00:39:23;;;;;;;6.50;2.30;;;7.20;99.90;;;;;;5014720;28;20038;-56
2021/03/19 00:41:49;;;;;;;4.38;2.58;;;7.20;99.90;;;;;;5013134;28;20038;-54
2021/03/19 00:44:15;;;;;;;4.40;2.40;;;7.20;99.90;;;;;;5013578;28;20739;-55
2021/03/19 00:46:41;;;;;;;2.30;2.10;;;7.20;99.90;;;;;;5013127;28;20057;-51
2021/03/19 00:49:06;;;;;;;3.95;2.10;;;7.30;99.90;;;;;;5011671;28;20026;-55
2021/03/19 00:51:32;;;;;;;3.05;2.20;;;7.20;99.90;;;;;;5012851;28;20041;-55
2021/03/19 00:53:58;;;;;;;3.28;2.03;;;7.20;99.90;;;;;;5013214;28;20034;-55
2021/03/19 00:56:23;;;;;;;2.88;2.00;;;7.20;99.90;;;;;;5012752;28;20538;-57
2021/03/19 00:58:49;;;;;;;3.22;2.20;;;7.20;99.90;;;;;;5013947;28;20499;-56
2021/03/19 01:01:15;;;;;;;3.97;2.42;;;7.20;99.90;;;;;;5012454;28;20029;-58
2021/03/19 01:03:40;;;;;;;3.38;2.20;;;7.10;99.90;;;;;;5013406;28;20029;-57
2021/03/19 01:06:06;;;;;;;3.40;2.33;;;7.20;99.90;;;;;;5013100;28;20034;-53
2021/03/19 01:08:32;;;;;;;2.83;2.50;;;7.20;99.90;;;;;;5013499;28;20042;-56
2021/03/19 01:10:58;;;;;;;4.15;3.05;;;7.20;99.90;;;;;;5012637;28;20038;-53
2021/03/19 01:13:25;;;;;;;4.60;2.58;;;7.20;99.90;;;;;;5013595;28;20076;-57
2021/03/19 01:15:51;;;;;;;3.83;2.53;;;7.20;99.90;;;;;;5012992;28;20077;-57
2021/03/19 01:18:19;;;;;;;3.50;2.50;;;7.20;99.90;;;;;;5013004;28;20026;-54
2021/03/19 01:20:47;;;;;;;3.83;2.88;;;7.20;99.90;;;;;;5012694;28;20029;-55
2021/03/19 01:23:14;;;;;;;3.88;3.13;;;7.20;99.90;;;;;;5011818;28;20092;-56
2021/03/19 01:25:42;;;;;;;4.38;2.83;;;7.20;99.90;;;;;;5012256;28;20038;-56
2021/03/19 01:28:08;;;;;;;3.65;2.80;;;7.20;99.90;;;;;;5013121;28;20088;-57
2021/03/19 01:30:36;;;;;;;3.28;2.70;;;7.20;99.90;;;;;;5012578;28;20041;-55
2021/03/19 01:33:03;;;;;;;3.20;2.65;;;7.20;99.90;;;;;;5013054;28;20034;-55
2021/03/19 01:35:31;;;;;;;4.78;2.85;;;7.20;99.90;;;;;;5012516;28;20034;-53
2021/03/19 01:37:57;;;;;;;3.65;3.00;;;7.20;99.90;;;;;;4995179;28;20384;-54
2021/03/19 01:40:26;;;;;;;3.00;2.50;;;7.20;99.90;;;;;;5012137;28;20041;-54
2021/03/19 01:43:04;;;;;;;3.72;2.90;;;7.20;99.90;;;;;;5011269;28;20034;-55
2021/03/19 01:46:07;;;;;;;5.60;2.90;;;7.20;99.90;;;;;;5012223;28;20026;-57
2021/03/19 01:49:10;;;;;;;3.10;2.80;;;7.20;99.90;;;;;;5000808;28;20100;-52
2021/03/19 01:52:13;;;;;;;3.38;2.70;;;7.20;99.90;;;;;;5011870;28;20104;-54
2021/03/19 01:55:16;;;;;;;3.28;2.90;;;7.20;99.90;;;;;;5012335;28;20550;-54
2021/03/19 01:58:19;;;;;;;3.28;2.95;;;7.20;99.90;;;;;;5010273;28;20112;-53
2021/03/19 02:01:22;;;;;;;3.33;3.03;;;7.30;99.90;;;;;;5011599;28;20034;-53
2021/03/19 02:04:25;;;;;;;3.17;2.55;;;7.20;99.90;;;;;;5001269;28;20105;-55
2021/03/19 02:07:28;;;;;;;5.68;2.90;;;7.20;99.90;;;;;;5011749;28;20037;-54
2021/03/19 02:10:31;;;;;;;2.92;2.53;;;7.20;99.90;;;;;;5012063;28;20137;-55
2021/03/19 02:13:34;;;;;;;3.65;2.70;;;7.20;99.90;;;;;;5012406;28;20060;-52
2021/03/19 02:16:37;;;;;;;2.72;2.50;;;7.20;99.90;;;;;;5001849;28;20498;-56
2021/03/19 02:19:40;;;;;;;3.28;2.58;;;7.10;99.90;;;;;;5003935;28;20038;-56
2021/03/19 02:22:43;;;;;;;5.45;3.03;;;7.10;99.90;;;;;;5011528;28;20045;-56
2021/03/19 02:25:46;;;;;;;2.95;2.65;;;7.20;99.90;;;;;;5011917;28;20034;-53
2021/03/19 02:28:49;;;;;;;3.63;2.97;;;7.10;99.90;;;;;;5004298;28;20038;-54
2021/03/19 02:31:15;;;;;;;4.05;2.70;;;7.10;99.90;;;;;;5000745;28;20033;-54
2021/03/19 02:34:01;;;;;;;2.83;2.40;;;7.20;99.90;;;;;;5011785;28;20079;-57
2021/03/19 02:36:28;;;;;;;3.63;2.63;;;7.20;99.90;;;;;;5010353;28;20530;-55
2021/03/19 02:38:54;;;;;;;3.97;2.42;;;7.10;99.90;;;;;;5011346;28;20033;-53
2021/03/19 02:41:21;;;;;;;3.30;3.00;;;7.10;99.90;;;;;;5011321;28;20041;-56
2021/03/19 02:43:47;;;;;;;3.15;2.80;;;7.10;99.90;;;;;;5010621;28;20037;-53
2021/03/19 02:46:13;;;;;;;3.95;2.75;;;7.10;99.90;;;;;;5010710;28;20030;-56
2021/03/19 02:48:39;;;;;;;3.38;2.80;;;7.10;99.90;;;;;;5011512;28;20030;-55
2021/03/19 02:51:06;;;;;;;3.03;2.72;;;7.10;99.90;;;;;;5009923;28;20038;-54
2021/03/19 02:53:33;;;;;;;3.95;3.00;;;7.20;99.90;;;;;;5011579;28;20098;-56
2021/03/19 02:56:02;;;;;;;3.20;2.80;;;7.20;99.90;;;;;;5011005;28;20120;-53
2021/03/19 02:58:28;;;;;;;3.33;2.90;;;7.20;99.90;;;;;;5011410;28;20047;-54
2021/03/19 03:00:54;;;;;;;3.95;2.75;;;7.20;99.90;;;;;;5010776;28;20464;-53
2021/03/19 03:03:20;;;;;;;3.17;2.60;;;7.20;99.90;;;;;;5011403;28;20037;-54
2021/03/19 03:05:46;;;;;;;3.53;2.78;;;7.20;99.90;;;;;;5011078;28;20486;-52
2021/03/19 03:08:15;;;;;;;4.68;3.00;;;7.20;99.90;;;;;;5010645;28;20763;-56
2021/03/19 03:10:42;;;;;;;3.55;2.65;;;7.10;99.90;;;;;;5009852;28;20030;-53
2021/03/19 03:13:09;;;;;;;3.38;2.80;;;7.20;99.90;;;;;;5011249;28;20040;-54
2021/03/19 03:15:35;;;;;;;3.55;2.70;;;7.10;99.90;;;;;;4997408;28;20048;-53
2021/03/19 03:18:01;;;;;;;2.80;2.30;;;7.10;99.90;;;;;;5011494;28;20069;-52
2021/03/19 03:20:38;;;;;;;3.05;2.40;;;7.10;99.90;;;;;;5011420;28;20026;-54
2021/03/19 03:23:06;;;;;;;3.30;2.50;;;7.10;99.90;;;;;;5016680;28;20053;-53
2021/03/19 03:25:32;;;;;;;2.83;2.30;;;7.10;99.90;;;;;;5011919;28;20030;-55
2021/03/19 03:27:58;;;;;;;2.40;2.00;;;7.10;99.90;;;;;;5010655;28;20025;-55
2021/03/19 03:30:35;;;;;;;2.67;2.15;;;7.10;99.90;;;;;;5010004;28;20103;-57
2021/03/19 03:33:01;;;;;;;2.75;2.05;;;7.10;99.90;;;;;;5010202;28;20018;-54
2021/03/19 03:35:27;;;;;;;2.72;2.08;;;7.10;99.90;;;;;;5011191;28;20391;-53
2021/03/19 03:37:53;;;;;;;2.80;2.03;;;7.10;99.90;;;;;;5010165;28;20044;-57
2021/03/19 03:40:30;;;;;;;2.53;1.80;;;7.10;99.90;;;;;;5011493;28;20069;-52
2021/03/19 03:42:56;;;;;;;2.28;1.60;;;7.10;99.90;;;;;;5006584;28;20113;-55
2021/03/19 03:45:23;;;;;;;2.42;1.40;;;7.10;99.90;;;;;;5011290;28;20037;-55
2021/03/19 03:47:49;;;;;;;2.45;1.40;;;7.10;99.90;;;;;;5009657;28;20034;-55
2021/03/19 03:50:17;;;;;;;1.98;1.30;;;7.10;99.90;;;;;;5011332;28;20507;-54
2021/03/19 03:52:43;;;;;;;1.45;1.20;;;7.10;99.90;;;;;;5009960;28;20015;-51
2021/03/19 03:55:09;;;;;;;1.13;0.80;;;7.10;99.90;;;;;;5011949;28;20037;-56
2021/03/19 03:57:36;;;;;;;0.98;0.85;;;7.10;99.90;;;;;;5013135;28;20550;-55
2021/03/19 04:00:04;;;;;;;0.80;0.80;;;7.00;99.90;;;;;;5014776;28;20030;-55
2021/03/19 04:02:34;;;;;;;2.05;0.90;;;7.00;99.90;;;;;;5014508;28;20034;-56
2021/03/19 04:05:00;;;;;;;1.00;0.90;;;7.00;99.90;;;;;;5014510;28;20025;-57
2021/03/19 04:07:25;;;;;;;3.58;0.95;;;7.00;99.90;;;;;;5013173;28;20377;-57
2021/03/19 04:09:51;;;;;;;0.98;0.85;;;6.90;99.90;;;;;;5013520;28;20736;-55
2021/03/19 04:12:18;;;;;;;0.77;0.70;;;7.00;99.90;;;;;;5014051;28;20385;-55
2021/03/19 04:14:44;;;;;;;0.98;0.90;;;6.90;99.90;;;;;;5014294;28;20046;-57
2021/03/19 04:17:23;;;;;;;2.58;0.80;;;6.90;99.90;;;;;;5013862;28;20041;-53
2021/03/19 04:19:49;;;;;;;2.75;0.80;;;6.90;99.90;;;;;;5014257;28;20018;-54
2021/03/19 04:22:14;;;;;;;0.98;0.90;;;6.90;99.90;;;;;;5013995;28;20073;-54
2021/03/19 04:24:40;;;;;;;0.75;0.70;;;6.80;99.90;;;;;;5014065;28;20468;-56
2021/03/19 04:27:06;;;;;;;1.88;0.88;;;6.90;99.90;;;;;;5014065;28;20136;-54
2021/03/19 04:29:31;;;;;;;0.98;0.88;;;6.90;99.90;;;;;;5013956;28;20778;-56
2021/03/19 04:31:57;;;;;;;2.15;0.80;;;7.00;99.90;;;;;;5011886;28;20399;-52
2021/03/19 04:34:23;;;;;;;1.65;1.08;;;7.00;99.90;;;;;;5014631;28;20088;-54
2021/03/19 04:36:51;;;;;;;2.78;1.10;;;6.90;99.90;;;;;;5013522;28;20040;-52
2021/03/19 04:39:24;;;;;;;0.95;0.95;;;6.90;99.90;;;;;;5013822;28;20041;-57
2021/03/19 04:41:54;;;;;;;1.98;1.33;;;6.90;99.90;;;;;;5013222;28;20064;-56
2021/03/19 04:44:22;;;;;;;1.73;1.40;;;6.80;99.90;;;;;;5012887;28;20033;-54
2021/03/19 04:46:48;;;;;;;1.63;1.42;;;6.80;99.90;;;;;;5013049;28;20022;-55
2021/03/19 04:49:14;;;;;;;2.42;1.42;;;6.70;99.90;;;;;;5013905;28;20034;-57
2021/03/19 04:51:39;;;;;;;1.40;1.30;;;6.70;99.90;;;;;;5013290;28;20472;-57
2021/03/19 04:54:07;;;;;;;3.03;1.67;;;6.70;99.90;;;;;;5013715;28;20480;-52
2021/03/19 04:56:33;;;;;;;1.77;1.40;;;6.70;99.90;;;;;;5013383;28;20092;-54
2021/03/19 04:58:59;;;;;;;1.80;1.60;;;6.70;99.90;;;;;;5013181;28;20013;-54
2021/03/19 05:01:25;;;;;;;2.30;1.67;;;6.70;99.90;;;;;;5013168;28;20530;-54
2021/03/19 05:03:51;;;;;;;3.05;1.90;;;6.70;99.90;;;;;;5013425;28;20036;-54
2021/03/19 05:06:17;;;;;;;4.38;1.98;;;6.60;99.90;;;;;;5011948;28;20114;-54
2021/03/19 05:08:43;;;;;;;3.03;1.92;;;6.60;99.90;;;;;;5012603;28;20037;-54
2021/03/19 05:11:10;;;;;;;3.45;2.35;;;6.60;99.90;;;;;;5013635;28;20045;-55
2021/03/19 05:13:37;;;;;;;3.33;2.00;;;6.60;99.90;;;;;;5012711;28;20068;-55
2021/03/19 05:16:03;;;;;;;3.67;2.10;;;6.60;99.90;;;;;;5013238;28;20021;-53
2021/03/19 05:18:29;;;;;;;4.78;2.30;;;6.60;99.90;;;;;;5012893;28;20037;-55
2021/03/19 05:20:55;;;;;;;6.43;2.20;;;6.60;99.90;;;;;;5013425;28;20041;-57
2021/03/19 05:23:23;;;;;;;4.78;2.13;;;6.60;99.90;;;;;;5012543;28;20125;-54
2021/03/19 05:25:49;;;;;;;3.00;1.90;;;6.60;99.90;;;;;;5013085;28;20029;-55
2021/03/19 05:28:16;;;;;;;3.90;2.33;;;6.60;99.90;;;;;;5012534;28;20141;-55
2021/03/19 05:30:41;;;;;;;4.75;2.30;;;6.60;99.90;;;;;;5013316;28;20391;-53
2021/03/19 05:33:07;;;;;;;4.05;2.00;;;6.50;99.90;;;;;;5011910;28;20109;-55
2021/03/19 05:35:34;;;;;;;3.20;2.20;;;6.50;99.90;;;;;;5013140;28;20030;-54
2021/03/19 05:38:00;;;;;;;6.28;2.40;;;6.40;99.90;;;;;;5012576;28;20051;-55
2021/03/19 05:40:51;;;;;;;7.75;2.60;;;6.40;99.90;;;;;;5013032;28;20034;-55
2021/03/19 05:43:23;;;;;;;8.48;2.70;;;6.50;99.90;;;;;;5003408;28;20522;-55
2021/03/19 05:46:06;;;;;;;9.10;2.97;;;6.50;99.90;;;;;;5011865;28;20044;-53
2021/03/19 05:48:42;;;;;;;5.13;2.50;;;6.40;99.90;;;;;;5012389;28;20133;-55
2021/03/19 05:51:21;;;;;;;4.13;2.85;;;6.40;99.90;;;;;;5012758;28;20044;-58
2021/03/19 05:53:54;;;;;;;5.90;3.13;;;6.30;99.90;;;;;;5012242;28;20519;-55
2021/03/19 05:56:26;;;;;;;5.68;2.90;;;6.30;99.90;;;;;;5012366;28;20030;-57
2021/03/19 05:58:51;;;;;;;5.45;2.85;;;6.20;99.90;;;;;;5012805;28;20751;-56
2021/03/19 06:01:17;;;;;;;4.50;3.03;;;6.20;99.90;;;;;;5012187;28;20075;-57
2021/03/19 06:03:45;;;;;;;4.75;2.92;;;6.10;99.90;;;;;;5011868;28;20497;-58
2021/03/19 06:06:12;;;;;;;8.10;3.33;;;6.10;99.90;;;;;;5012342;28;20046;-56
2021/03/19 06:08:42;;;;;;;8.82;3.47;;;6.10;99.90;;;;;;5011299;28;20037;-54
2021/03/19 06:11:21;;;;;;;10.25;3.33;;;6.10;99.90;;;;;;5012701;28;20392;-56
2021/03/19 06:13:56;;;;;;;8.45;3.35;;;6.20;99.90;;;;;;5011689;28;20610;-55
2021/03/19 06:16:43;;;;;;;9.23;2.90;;;6.10;99.90;;;;;;5011760;28;20113;-53
2021/03/19 06:19:35;;;;;;;6.15;3.22;;;6.20;99.90;;;;;;5012035;28;20504;-55
2021/03/19 06:22:24;;;;;;;8.15;3.90;;;6.20;99.90;;;;;;5011498;28;20488;-56
2021/03/19 06:25:16;;;;;;;9.77;3.50;;;6.20;99.90;;;;;;5012999;28;20034;-53
2021/03/19 06:28:03;;;;;;;5.07;3.35;;;6.20;99.90;;;;;;5004633;28;20088;-54
2021/03/19 06:30:41;;;;;;;8.88;3.40;;;6.30;99.90;;;;;;5011924;28;20120;-53
2021/03/19 06:33:13;;;;;;;5.93;3.35;;;6.20;99.90;;;;;;5011230;28;20080;-57
2021/03/19 06:35:45;;;;;;;9.82;3.53;;;6.20;99.90;;;;;;5012034;28;20030;-54
2021/03/19 06:38:40;;;;;;;10.60;3.30;;;6.20;99.90;;;;;;5011484;28;20026;-54
2021/03/19 06:41:30;;;;;;;7.68;3.80;;;6.30;99.90;;;;;;5010664;28;20052;-56
2021/03/19 06:44:18;;;;;;;7.85;3.78;;;6.30;99.90;;;;;;5009769;28;20121;-55
2021/03/19 06:47:00;;;;;;;9.38;3.50;;;6.10;99.90;;;;;;5002084;28;20041;-54
2021/03/19 06:49:27;;;;;;;8.63;3.25;;;6.20;99.90;;;;;;5011809;28;20443;-59
2021/03/19 06:52:23;;;;;;;9.23;3.50;;;6.20;99.90;;;;;;5011451;28;20477;-55
2021/03/19 06:54:56;;;;;;;10.77;3.97;;;6.20;99.90;;;;;;5003222;28;20068;-56
2021/03/19 06:57:25;;;;;;;8.07;3.78;;;6.20;99.90;;;;;;5011125;28;20081;-52
2021/03/19 06:59:53;;;;;;;9.77;3.60;;;6.10;99.90;;;;;;5011020;28;20041;-56
2021/03/19 07:02:31;;;;;;;10.68;3.85;;;6.10;99.90;;;;;;5010986;28;20060;-55
2021/03/19 07:05:18;;;;;;;7.85;3.42;;;6.20;99.90;;;;;;5010937;28;20026;-55
2021/03/19 07:08:13;;;;;;;12.50;3.35;;;6.20;99.90;;;;;;5010270;28;20045;-53
2021/03/19 07:10:51;;;;;;;14.35;3.83;;;6.20;99.90;;;;;;5010501;28;20053;-50
2021/03/19 07:13:41;;;;;;;12.52;3.40;;;6.20;99.90;;;;;;5010727;28;20045;-54
2021/03/19 07:16:17;;;;;;;10.20;3.28;;;6.20;99.90;;;;;;5003973;28;20044;-57
2021/03/19 07:19:04;;;;;;;7.43;3.10;;;6.20;99.90;;;;;;5009593;28;20488;-50
2021/03/19 07:22:08;;;;;;;7.63;3.22;;;6.30;99.90;;;;;;5010299;28;20092;-53
2021/03/19 07:25:02;;;;;;;9.50;3.00;;;6.30;99.90;;;;;;5010354;28;20044;-53
2021/03/19 07:27:34;;;;;;;8.88;2.88;;;6.40;99.90;;;;;;5007754;28;20022;-58
2021/03/19 07:30:42;;;;;;;9.40;3.33;;;6.30;99.90;;;;;;4997525;28;20026;-57
2021/03/19 07:33:13;;;;;;;11.88;3.83;;;6.30;99.90;;;;;;4958579;28;20124;-57
2021/03/19 07:35:56;;;;;;;11.82;4.95;;;6.30;99.90;;;;;;5011084;28;20105;-58
2021/03/19 07:38:41;;;;;;;12.13;3.80;;;6.20;99.90;;;;;;5010394;28;20037;-55
2021/03/19 07:41:40;;;;;;;10.80;3.22;;;6.20;99.90;;;;;;5010656;28;20065;-56
2021/03/19 07:44:37;;;;;;;11.55;3.42;;;6.20;99.90;;;;;;5010380;28;20084;-57
2021/03/19 07:47:16;;;;;;;16.77;3.30;;;6.30;99.90;;;;;;5006617;28;20038;-55
2021/03/19 07:50:04;;;;;;;16.00;3.45;;;6.30;99.90;;;;;;5008552;28;20022;-53
2021/03/19 07:52:35;;;;;;;15.75;3.42;;;6.30;99.90;;;;;;5009663;28;20042;-56
2021/03/19 07:55:12;;;;;;;12.43;3.20;;;6.30;99.90;;;;;;5010053;28;20061;-53
2021/03/19 07:57:43;;;;;;;10.13;3.40;;;6.40;99.90;;;;;;5008086;28;20030;-55
2021/03/19 08:00:20;;;;;;;11.70;3.22;;;6.40;99.90;;;;;;5008847;28;20060;-55
2021/03/19 08:02:56;;;;;;;22.13;3.90;;;6.40;99.90;;;;;;5004535;28;20566;-52
2021/03/19 08:05:45;;;;;;;11.85;3.47;;;6.50;99.90;;;;;;5008377;28;20117;-54
2021/03/19 08:08:14;;;;;;;12.57;3.55;;;6.70;99.90;;;;;;5008198;28;20198;-52
2021/03/19 08:10:51;;;;;;;10.27;2.85;;;6.80;99.90;;;;;;5010283;28;20377;-54
2021/03/19 08:13:46;;;;;;;14.75;3.47;;;6.90;99.90;;;;;;5009379;28;20038;-55
2021/03/19 08:16:45;;;;;;;16.83;3.15;;;7.00;99.90;;;;;;5007309;28;20032;-57
2021/03/19 08:19:53;;;;;;;13.60;3.75;;;6.90;99.90;;;;;;4989587;28;20535;-54
2021/03/19 08:22:35;;;;;;;17.20;3.80;;;7.10;99.90;;;;;;5018136;28;20380;-58
2021/03/19 08:25:13;;;;;;;10.85;2.80;;;7.20;99.90;;;;;;5030015;28;20033;-56
2021/03/19 08:27:47;;;;;;;11.77;3.08;;;7.30;99.90;;;;;;5029362;28;20025;-59
2021/03/19 08:30:34;;;;;;;19.30;6.18;;;7.30;99.90;;;;;;5029905;28;20096;-57
2021/03/19 08:33:24;;;;;;;11.38;2.97;;;7.60;99.90;;;;;;5024873;28;20088;-55
2021/03/19 08:36:31;;;;;;;14.07;3.05;;;7.80;99.90;;;;;;5028171;28;20376;-56
2021/03/19 08:39:11;;;;;;;17.05;2.80;;;7.70;99.90;;;;;;4993068;28;20041;-56
2021/03/19 08:41:43;;;;;;;14.50;2.90;;;7.50;99.90;;;;;;5029735;28;20475;-56
2021/03/19 08:44:13;;;;;;;13.93;4.28;;;7.50;99.90;;;;;;5032652;28;21106;-57
2021/03/19 08:46:55;;;;;;;17.90;2.80;;;7.40;99.90;;;;;;5032728;28;20080;-54
2021/03/19 08:49:24;;;;;;;16.08;3.78;;;7.30;99.90;;;;;;5030930;28;20029;-57
2021/03/19 08:51:50;;;;;;;8.10;2.65;;;7.30;99.90;;;;;;5032779;28;20391;-57
2021/03/19 08:54:20;;;;;;;13.20;3.72;;;7.40;99.90;;;;;;5031840;28;20087;-59
2021/03/19 08:56:55;;;;;;;12.43;2.83;;;7.40;99.90;;;;;;5033277;28;20049;-50
2021/03/19 08:59:39;;;;;;;22.05;4.20;;;7.30;99.90;;;;;;5031591;28;20030;-56
2021/03/19 09:02:26;;;;;;;14.18;2.35;;;7.50;99.90;;;;;;5032640;28;20033;-57
2021/03/19 09:04:58;;;;;;;11.48;2.72;;;8.00;99.90;;;;;;5031999;28;20152;-53
2021/03/19 09:07:38;;;;;;;15.25;3.10;;;8.30;99.90;;;;;;5033109;28;20373;-55
2021/03/19 09:10:33;;;;;;;13.82;2.65;;;8.40;99.90;;;;;;5030292;28;20368;-54
2021/03/19 09:12:58;;;;;;;12.90;3.10;;;8.70;99.90;;;;;;5031544;28;20041;-59
2021/03/19 09:15:28;;;;;;;17.85;3.67;;;9.00;99.90;;;;;;5032416;28;20048;-57
2021/03/19 09:18:03;;;;;;;17.02;4.20;;;9.30;99.90;;;;;;5032031;28;20072;-56
2021/03/19 09:20:39;;;;;;;;;;;9.60;99.90;;;;;;5033373;28;20025;-55
2021/03/19 09:23:07;;;;;;;11.73;2.72;;;9.70;99.90;;;;;;5022747;28;19925;-58
2021/03/19 09:25:40;;;;;;;15.80;3.10;;;9.80;99.90;;;;;;5031515;28;20044;-56
2021/03/19 09:28:17;;;;;;;18.65;2.80;;;9.90;99.90;;;;;;5021291;28;20022;-54
2021/03/19 09:31:00;;;;;;;16.13;2.63;;;10.00;99.90;;;;;;5032151;28;20044;-56
2021/03/19 09:33:44;;;;;;;15.93;2.70;;;10.10;99.90;;;;;;5019048;28;20021;-55
2021/03/19 09:36:47;;;;;;;20.15;2.70;;;10.20;99.90;;;;;;5016572;28;20026;-58
2021/03/19 09:39:51;;;;;;;13.50;2.25;;;10.20;99.90;;;;;;5015847;28;20034;-54
2021/03/19 09:42:20;;;;;;;19.23;3.08;;;10.20;99.90;;;;;;5026559;28;20041;-55
2021/03/19 09:44:49;;;;;;;18.70;2.80;;;10.30;99.90;;;;;;5010235;28;20026;-55
2021/03/19 09:47:23;;;;;;;18.27;2.45;;;10.30;99.90;;;;;;5025276;28;20072;-56
2021/03/19 09:49:49;;;;;;;22.33;2.38;;;10.20;99.90;;;;;;5028070;28;20026;-53
2021/03/19 09:52:20;;;;;;;19.70;2.42;;;10.20;99.90;;;;;;5018083;28;20441;-56
2021/03/19 09:54:47;;;;;;;24.58;3.17;;;10.20;99.90;;;;;;5013633;28;20480;-56
2021/03/19 09:57:21;;;;;;;11.32;2.20;;;10.30;99.90;;;;;;5024951;28;20036;-57
2021/03/19 09:59:58;;;;;;;14.18;2.28;;;10.50;99.90;;;;;;5017110;28;20056;-58
2021/03/19 10:02:28;;;;;;;7.47;1.88;;;10.30;99.90;;;;;;5013178;28;20091;-56
2021/03/19 10:05:04;;;;;;;14.93;2.15;;;10.10;99.90;;;;;;5017745;28;20064;-57
2021/03/19 10:07:32;;;;;;;10.02;2.20;;;10.10;99.90;;;;;;5013359;28;20100;-55
2021/03/19 10:09:58;;;;;;;12.07;2.75;;;10.30;99.90;;;;;;5013629;28;20064;-56
2021/03/19 10:12:27;;;;;;;15.32;2.42;;;10.40;99.90;;;;;;5014744;28;20060;-55
2021/03/19 10:15:08;;;;;;;12.48;1.88;;;10.50;99.90;;;;;;5021237;28;20042;-58
2021/03/19 10:17:36;;;;;;;22.60;4.25;;;10.30;99.90;;;;;;5011738;28;20121;-55
2021/03/19 10:20:11;;;;;;;7.82;1.80;;;10.10;99.90;;;;;;5012638;28;20025;-55
2021/03/19 10:22:46;;;;;;;9.18;1.95;;;10.20;99.90;;;;;;5011631;28;20503;-56
2021/03/19 10:25:19;;;;;;;12.77;2.10;;;10.20;99.90;;;;;;5014374;28;20017;-54
2021/03/19 10:27:54;;;;;;;10.27;2.00;;;10.10;99.90;;;;;;5010714;28;20052;-57
2021/03/19 10:30:35;;;;;;;31.08;3.63;;;10.00;99.90;;;;;;5010876;28;20030;-55
2021/03/19 10:33:14;;;;;;;13.57;2.33;;;10.10;99.90;;;;;;5009608;28;20029;-58
2021/03/19 10:35:47;;;;;;;16.13;2.47;;;10.20;99.90;;;;;;5011397;28;20076;-55
2021/03/19 10:38:38;;;;;;;12.77;2.28;;;10.20;99.90;;;;;;5011460;28;20029;-59
2021/03/19 10:41:10;;;;;;;16.02;2.80;;;10.30;99.90;;;;;;5011015;28;20042;-58
2021/03/19 10:44:00;;;;;;;11.98;2.40;;;10.30;99.90;;;;;;5010863;28;20068;-56
2021/03/19 10:47:05;;;;;;;9.32;2.42;;;10.40;99.90;;;;;;5003695;28;20476;-57
2021/03/19 10:49:57;;;;;;;15.55;2.50;;;10.40;99.90;;;;;;5000502;28;20396;-57
2021/03/19 10:52:35;;;;;;;17.15;3.00;;;10.40;99.90;;;;;;5009117;28;20048;-57
2021/03/19 10:55:12;;;;;;;25.52;2.75;;;10.40;99.90;;;;;;5010079;28;20038;-57
2021/03/19 10:57:40;;;;;;;10.20;2.33;;;10.30;99.90;;;;;;5009597;28;20056;-55
2021/03/19 11:00:31;;;;;;;12.70;2.00;;;10.50;99.90;;;;;;5010705;28;20030;-57
2021/03/19 11:03:05;;;;;;;8.43;1.95;;;10.60;99.90;;;;;;5010902;28;20046;-56
2021/03/19 11:05:33;;;;;;;11.48;2.00;;;10.60;99.90;;;;;;5010473;28;20080;-55
2021/03/19 11:08:16;;;;;;;11.05;1.90;;;10.80;99.90;;;;;;5011042;28;20053;-56
2021/03/19 11:10:42;;;;;;;14.65;2.25;;;10.70;99.90;;;;;;5011172;28;20050;-55
2021/03/19 11:13:08;;;;;;;14.50;2.35;;;10.80;99.90;;;;;;5010410;28;20545;-57
2021/03/19 11:15:33;;;;;;;12.60;2.13;;;10.80;99.90;;;;;;5010467;28;20038;-56
2021/03/19 11:18:20;;;;;;;9.35;1.70;;;10.70;99.90;;;;;;5010223;28;20034;-56
2021/03/19 11:21:09;;;;;;;14.02;2.20;;;10.70;99.90;;;;;;5010341;28;20546;-56
2021/03/19 11:23:36;;;;;;;26.00;2.92;;;10.60;99.90;;;;;;5017369;28;20120;-55
2021/03/19 11:26:28;;;;;;;8.43;1.50;;;10.50;99.90;;;;;;5030194;28;20116;-58
2021/03/19 11:29:13;;;;;;;18.50;2.40;;;10.60;99.90;;;;;;5030447;28;20036;-56
2021/03/19 11:32:10;;;;;;;7.82;1.80;;;10.60;99.90;;;;;;5018201;28;20123;-54
2021/03/19 11:34:41;;;;;;;5.38;1.40;;;10.60;99.90;;;;;;5009980;28;20037;-55
2021/03/19 11:37:07;;;;;;;6.18;1.63;;;10.70;99.90;;;;;;5028935;28;20137;-56
2021/03/19 11:39:42;;;;;;;8.35;1.92;;;10.70;99.90;;;;;;5030098;28;20148;-54
2021/03/19 11:42:09;;;;;;;;;;;10.80;99.90;;;;;;5030330;28;20041;-56
2021/03/19 11:44:36;;;;;;;12.38;2.15;;;10.80;99.90;;;;;;5028969;28;19920;-56
2021/03/19 11:47:30;;;;;;;5.28;1.38;;;10.90;99.90;;;;;;5028300;28;20041;-56
2021/03/19 11:50:17;;;;;;;10.98;1.73;;;10.80;99.90;;;;;;5027268;28;20037;-54
2021/03/19 11:52:44;;;;;;;11.30;1.85;;;10.90;99.90;;;;;;5029245;28;20044;-54
2021/03/19 11:55:14;;;;;;;6.35;1.73;;;10.70;99.90;;;;;;5029719;28;20128;-60
2021/03/19 11:57:40;;;;;;;14.68;2.50;;;10.80;99.90;;;;;;5029229;28;20395;-54
2021/03/19 12:00:07;;;;;;;11.07;1.92;;;10.60;99.90;;;;;;5029486;28;20029;-57
2021/03/19 12:02:39;;;;;;;6.60;1.60;;;10.70;99.90;;;;;;5028709;28;20026;-55
2021/03/19 12:05:07;;;;;;;7.30;1.92;;;10.80;99.90;;;;;;5030002;28;20488;-55
2021/03/19 12:07:32;;;;;;;14.38;1.60;;;10.80;99.90;;;;;;5028593;28;20547;-57
2021/03/19 12:09:58;;;;;;;5.00;1.42;;;10.70;99.90;;;;;;5029250;28;20036;-55
2021/03/19 12:12:25;;;;;;;10.00;1.92;;;10.70;99.90;;;;;;5029543;28;20403;-55
2021/03/19 12:14:51;;;;;;;15.93;1.80;;;10.80;99.90;;;;;;5030010;28;20044;-55
2021/03/19 12:17:19;;;;;;;4.75;1.17;;;11.00;99.90;;;;;;5015371;28;20053;-54
2021/03/19 12:19:45;;;;;;;6.40;1.48;;;11.20;99.90;;;;;;5032760;28;20021;-55
2021/03/19 12:22:11;;;;;;;8.95;1.50;;;11.20;99.90;;;;;;5025105;28;20061;-55
2021/03/19 12:24:37;;;;;;;11.90;1.73;;;11.30;99.90;;;;;;5012846;28;20073;-54
2021/03/19 12:27:04;;;;;;;6.03;1.23;;;11.40;99.90;;;;;;5012786;28;20026;-56
2021/03/19 12:29:31;;;;;;;12.90;2.42;;;11.50;99.90;;;;;;5014215;28;20053;-56
2021/03/19 12:31:57;;;;;;;6.00;1.40;;;11.60;99.90;;;;;;5010994;28;20042;-54
2021/03/19 12:34:23;;;;;;;6.35;1.50;;;11.40;99.90;;;;;;5013231;28;20087;-58
2021/03/19 12:36:50;;;;;;;13.98;1.75;;;11.10;99.90;;;;;;5015054;28;20033;-53
2021/03/19 12:39:18;;;;;;;4.35;1.58;;;11.10;99.90;;;;;;5020824;28;20026;-57
2021/03/19 12:41:48;;;;;;;7.82;1.77;;;11.10;99.90;;;;;;5013448;28;20050;-53
2021/03/19 12:44:14;;;;;;;6.40;1.60;;;11.20;99.90;;;;;;5012915;28;20045;-57
2021/03/19 12:46:40;;;;;;;18.02;2.10;;;11.40;99.90;;;;;;5013231;28;20017;-54
2021/03/19 12:49:06;;;;;;;5.78;1.65;;;11.50;99.90;;;;;;5012517;28;20468;-55
2021/03/19 12:51:33;;;;;;;8.40;1.75;;;11.40;99.90;;;;;;5012684;28;20476;-58
2021/03/19 12:53:59;;;;;;;9.40;1.70;;;11.20;99.90;;;;;;5013208;28;20033;-57
2021/03/19 12:56:24;;;;;;;7.63;1.75;;;11.10;99.90;;;;;;5011641;28;20040;-56
2021/03/19 12:58:50;;;;;;;5.80;1.70;;;11.10;99.90;;;;;;5013201;28;20107;-55
2021/03/19 13:01:19;;;;;;;7.57;1.35;;;11.20;99.90;;;;;;5012471;28;20373;-52
2021/03/19 13:03:45;;;;;;;6.07;1.73;;;11.20;99.90;;;;;;5013170;28;20026;-56
2021/03/19 13:06:11;;;;;;;9.88;1.55;;;11.30;99.90;;;;;;5013585;28;20388;-56
2021/03/19 13:08:38;;;;;;;7.40;1.30;;;11.40;99.90;;;;;;5012547;28;20030;-56
2021/03/19 13:11:04;;;;;;;5.72;1.77;;;11.50;99.90;;;;;;5012998;28;20026;-56
2021/03/19 13:13:30;;;;;;;9.95;1.60;;;11.60;99.90;;;;;;5013750;28;20038;-57
2021/03/19 13:15:56;;;;;;;7.65;1.65;;;11.70;99.90;;;;;;5012008;28;20399;-55
2021/03/19 13:18:22;;;;;;;4.55;1.40;;;11.50;99.90;;;;;;5013425;28;20092;-53
2021/03/19 13:20:49;;;;;;;5.13;1.50;;;11.50;99.90;;;;;;5012940;28;20026;-52
2021/03/19 13:23:15;;;;;;;10.77;1.98;;;11.60;99.90;;;;;;5013217;28;20080;-57
2021/03/19 13:25:42;;;;;;;6.15;1.85;;;11.70;99.90;;;;;;5012135;28;20030;-56